Time;durP1;ratioP1;P1;durP2;ratioP2;P2;SDS_P1;SDS_P2;PMS_P1;PMS_P2;Temp;Humidity;BMP_temperature;BMP_pressure;BME280_temperature;BME280_humidity;BME280_pressure;Samples;Min_cycle;Max_cycle;Signal;HPM_P1;HPM_P2
2021/06/07 00:03:57;;;;;;;39.83;35.88;;;;;;;18.83;75.95;100493.47;10544741;28;20044;-74
2021/06/07 00:08:59;;;;;;;38.75;34.95;;;;;;;18.93;75.99;100485.78;10550583;28;20044;-74
2021/06/07 00:14:02;;;;;;;42.08;38.05;;;;;;;18.83;75.71;100485.47;10547913;28;20055;-74
2021/06/07 00:19:09;;;;;;;41.90;37.75;;;;;;;18.84;75.90;100488.03;10546342;28;20123;-74
2021/06/07 00:24:12;;;;;;;41.38;36.53;;;;;;;18.90;75.58;100489.47;10544621;28;20051;-73
2021/06/07 00:29:15;;;;;;;40.50;36.75;;;;;;;18.70;76.03;100487.16;10547708;28;20040;-74
2021/06/07 00:34:16;;;;;;;40.97;36.67;;;;;;;18.83;75.91;100493.47;10546845;28;20050;-74
2021/06/07 00:39:18;;;;;;;41.20;37.35;;;;;;;18.78;75.43;100499.06;10545149;28;20050;-74
2021/06/07 00:44:22;;;;;;;38.50;35.03;;;;;;;18.85;75.23;100500.41;10544097;28;20044;-73
2021/06/07 00:49:24;;;;;;;40.63;36.88;;;;;;;18.77;75.37;100504.47;10545110;28;20044;-73
2021/06/07 00:54:26;;;;;;;41.85;37.28;;;;;;;18.77;75.18;100505.34;10527384;28;20052;-73
2021/06/07 00:59:27;;;;;;;45.28;38.63;;;;;;;18.69;75.33;100496.94;10525562;28;20054;-74
2021/06/07 01:04:29;;;;;;;40.10;35.92;;;;;;;18.72;75.33;100494.09;10543592;28;20036;-74
2021/06/07 01:09:31;;;;;;;39.45;35.30;;;;;;;18.54;75.97;100490.66;10542873;28;20552;-73
2021/06/07 01:14:33;;;;;;;38.88;35.50;;;;;;;18.67;75.09;100494.31;10527367;28;20142;-74
2021/06/07 01:19:34;;;;;;;43.25;37.92;;;;;;;18.74;75.01;100491.34;10543015;28;20032;-74
2021/06/07 01:24:37;;;;;;;42.33;36.88;;;;;;;18.59;75.14;100498.38;10542655;28;20035;-73
2021/06/07 01:29:39;;;;;;;39.50;35.45;;;;;;;18.51;75.54;100495.31;10525383;28;20476;-75
2021/06/07 01:34:41;;;;;;;39.50;35.60;;;;;;;18.63;74.81;100492.78;10544573;28;20454;-74
2021/06/07 01:39:43;;;;;;;39.58;35.58;;;;;;;18.47;75.46;100491.13;10524445;28;20032;-74
2021/06/07 01:44:45;;;;;;;40.58;36.05;;;;;;;18.42;75.57;100494.03;10507552;28;20052;-74
2021/06/07 01:49:47;;;;;;;46.58;36.45;;;;;;;18.44;75.41;100491.28;10543849;28;20055;-74
2021/06/07 01:54:49;;;;;;;42.70;38.22;;;;;;;18.36;75.95;100483.72;10532628;28;20044;-73
2021/06/07 01:59:51;;;;;;;47.72;36.75;;;;;;;18.32;76.13;100488.34;10552590;28;20122;-73
2021/06/07 02:04:52;;;;;;;50.05;38.05;;;;;;;18.36;75.97;100489.03;10516095;28;20052;-73
2021/06/07 02:09:54;;;;;;;41.10;36.60;;;;;;;18.40;75.80;100493.25;10549489;28;20362;-74
2021/06/07 02:14:55;;;;;;;45.20;37.35;;;;;;;18.39;75.74;100486.22;10549101;28;20097;-72
2021/06/07 02:19:57;;;;;;;42.90;38.15;;;;;;;18.53;75.13;100490.75;10550191;28;20059;-73
2021/06/07 02:24:58;;;;;;;39.22;35.20;;;;;;;18.29;76.00;100493.00;10548622;28;20044;-74
2021/06/07 02:30:04;;;;;;;42.80;37.97;;;;;;;18.42;75.59;100486.06;10548249;28;20498;-73
2021/06/07 02:35:10;;;;;;;41.42;37.42;;;;;;;18.32;75.61;100488.34;10530641;28;20405;-73
2021/06/07 02:40:14;;;;;;;43.07;38.50;;;;;;;18.20;76.09;100490.88;10541660;22;20044;-71
2021/06/07 02:45:18;;;;;;;41.33;37.45;;;;;;;18.24;75.88;100487.97;10545541;28;20517;-71
2021/06/07 02:50:25;;;;;;;44.35;38.88;;;;;;;18.23;76.06;100486.22;10545400;28;20456;-71
2021/06/07 02:55:32;;;;;;;41.58;36.95;;;;;;;18.09;76.40;100500.28;10525915;28;20105;-71
2021/06/07 03:00:40;;;;;;;41.28;36.83;;;;;;;18.27;75.73;100490.41;10545566;28;20457;-71
2021/06/07 03:05:44;;;;;;;44.63;39.00;;;;;;;18.15;76.22;100493.78;10543114;28;20044;-71
2021/06/07 03:10:52;;;;;;;40.75;36.58;;;;;;;18.18;76.13;100495.41;10543018;28;20036;-71
2021/06/07 03:15:56;;;;;;;40.70;36.63;;;;;;;18.14;76.26;100497.38;10544605;28;20044;-71
2021/06/07 03:20:57;;;;;;;42.97;38.40;;;;;;;18.30;75.67;100497.38;10544119;28;20508;-71
2021/06/07 03:25:59;;;;;;;42.85;37.90;;;;;;;18.49;75.00;100503.38;10524966;28;20044;-71
2021/06/07 03:31:02;;;;;;;41.45;36.88;;;;;;;18.18;75.95;100503.38;10525275;28;20070;-71
2021/06/07 03:36:05;;;;;;;42.35;37.83;;;;;;;18.27;75.66;100506.38;10526066;28;20040;-71
2021/06/07 03:41:08;;;;;;;47.15;37.65;;;;;;;18.46;75.11;100506.22;10543350;28;20043;-72
2021/06/07 03:46:09;;;;;;;39.08;35.13;;;;;;;18.29;75.60;100508.97;10542280;28;20040;-71
2021/06/07 03:51:11;;;;;;;46.58;39.13;;;;;;;18.35;75.29;100504.16;10524307;28;20051;-71
2021/06/07 03:56:12;;;;;;;47.28;39.13;;;;;;;18.26;75.66;100510.00;10523505;28;20040;-71
2021/06/07 04:01:14;;;;;;;41.92;37.65;;;;;;;18.33;75.11;100508.72;10541978;28;20081;-71
2021/06/07 04:06:16;;;;;;;41.72;37.70;;;;;;;18.58;74.34;100518.81;10542028;28;20032;-71
2021/06/07 04:11:18;;;;;;;39.58;35.55;;;;;;;18.46;74.76;100516.88;10542751;28;20055;-71
2021/06/07 04:16:20;;;;;;;43.20;37.20;;;;;;;18.46;74.57;100516.00;10540838;28;20060;-71
2021/06/07 04:21:21;;;;;;;42.50;37.95;;;;;;;18.59;74.35;100517.91;10542257;28;20040;-71
2021/06/07 04:26:23;;;;;;;43.35;38.83;;;;;;;18.44;74.45;100521.41;10541534;28;20044;-71
2021/06/07 04:31:25;;;;;;;45.08;37.97;;;;;;;18.36;74.98;100526.31;10522786;28;20059;-70
2021/06/07 04:36:27;;;;;;;41.10;36.95;;;;;;;18.43;75.29;100526.84;10522630;28;20051;-71
2021/06/07 04:41:29;;;;;;;40.10;35.97;;;;;;;18.53;74.27;100517.38;10539475;28;20064;-71
2021/06/07 04:46:32;;;;;;;40.95;36.65;;;;;;;18.47;74.46;100528.38;10539928;28;20059;-71
2021/06/07 04:51:34;;;;;;;39.72;35.83;;;;;;;18.67;74.01;100528.94;10539687;28;20062;-71
2021/06/07 04:56:36;;;;;;;40.53;36.17;;;;;;;18.57;73.84;100530.41;10540282;28;20044;-71
2021/06/07 05:01:37;;;;;;;38.35;35.08;;;;;;;18.60;74.14;100522.25;10539624;28;20089;-71
2021/06/07 05:06:39;;;;;;;39.45;35.63;;;;;;;18.69;73.88;100530.69;10521378;28;20476;-71
2021/06/07 05:11:41;;;;;;;37.15;33.67;;;;;;;18.73;73.24;100524.25;10523084;28;20484;-71
2021/06/07 05:16:43;;;;;;;39.20;35.72;;;;;;;18.52;74.08;100528.97;10539432;28;20036;-71
2021/06/07 05:21:47;;;;;;;39.22;35.13;;;;;;;18.70;73.33;100530.59;10522046;28;20066;-71
2021/06/07 05:26:48;;;;;;;37.33;33.65;;;;;;;18.69;73.67;100531.56;10538196;28;20036;-71
2021/06/07 05:31:50;;;;;;;36.47;33.03;;;;;;;19.06;71.91;100532.06;10539140;28;20047;-71
2021/06/07 05:36:52;;;;;;;30.23;27.83;;;;;;;19.20;71.55;100534.78;10539953;28;20036;-74
2021/06/07 05:41:54;;;;;;;34.30;31.80;;;;;;;19.03;71.63;100538.44;10522886;28;20052;-71
2021/06/07 05:47:01;;;;;;;36.75;33.10;;;;;;;18.90;72.37;100542.75;10521612;28;20036;-72
2021/06/07 05:52:08;;;;;;;32.35;29.92;;;;;;;19.20;71.53;100544.56;10539662;28;20154;-70
2021/06/07 05:57:10;;;;;;;;;;;;;;;19.48;70.26;100550.00;10539278;28;20043;-71
2021/06/07 06:02:12;;;;;;;32.25;29.52;;;;;;;19.06;71.88;100550.72;10522361;28;19920;-71
2021/06/07 06:07:13;;;;;;;30.25;27.58;;;;;;;19.25;71.71;100554.00;10540314;28;20363;-71
2021/06/07 06:12:15;;;;;;;32.22;29.60;;;;;;;19.49;70.24;100553.50;10539449;28;20408;-71
2021/06/07 06:17:16;;;;;;;30.85;28.52;;;;;;;19.35;69.34;100554.34;10538945;28;20050;-71
2021/06/07 06:22:18;;;;;;;31.25;28.85;;;;;;;19.79;68.64;100553.44;10538174;28;20040;-70
2021/06/07 06:27:20;;;;;;;24.35;22.85;;;;;;;19.97;65.19;100552.34;10538089;28;20097;-72
2021/06/07 06:32:22;;;;;;;27.63;22.90;;;;;;;20.31;63.91;100545.69;10536675;28;20044;-72
2021/06/07 06:37:24;;;;;;;24.30;22.50;;;;;;;19.99;63.32;100550.41;10520503;28;20488;-71
2021/06/07 06:42:25;;;;;;;24.75;22.70;;;;;;;20.15;63.04;100551.16;10545277;28;20055;-71
2021/06/07 06:47:27;;;;;;;24.05;22.42;;;;;;;20.61;62.24;100560.72;10545295;28;20036;-71
2021/06/07 06:52:29;;;;;;;23.13;21.63;;;;;;;20.75;61.69;100554.47;10545031;28;20115;-70
2021/06/07 06:57:31;;;;;;;24.23;22.63;;;;;;;20.65;62.19;100564.91;10545563;28;20485;-71
2021/06/07 07:02:32;;;;;;;23.50;21.73;;;;;;;20.46;62.49;100570.56;10545747;28;20048;-71
2021/06/07 07:07:34;;;;;;;24.63;22.88;;;;;;;20.42;62.14;100566.38;10511216;28;20044;-71
2021/06/07 07:12:36;;;;;;;21.92;20.33;;;;;;;20.57;61.47;100568.09;10544799;28;20043;-71
2021/06/07 07:17:38;;;;;;;24.10;22.58;;;;;;;20.84;60.18;100569.91;10544420;28;20046;-71
2021/06/07 07:22:42;;;;;;;22.63;21.13;;;;;;;20.81;61.00;100573.66;10543439;28;20093;-71
2021/06/07 07:27:44;;;;;;;22.65;21.05;;;;;;;21.23;60.02;100578.91;10543295;28;20040;-71
2021/06/07 07:32:48;;;;;;;23.25;21.75;;;;;;;21.38;59.50;100578.78;10525101;28;20047;-71
2021/06/07 07:37:52;;;;;;;23.23;21.52;;;;;;;20.94;60.21;100583.50;10543318;28;20485;-71
2021/06/07 07:42:57;;;;;;;22.63;20.95;;;;;;;20.92;59.59;100576.47;10508500;28;20048;-71
2021/06/07 07:48:03;;;;;;;23.70;22.08;;;;;;;20.66;60.12;100577.31;10524341;28;20040;-71
2021/06/07 07:53:05;;;;;;;25.30;23.38;;;;;;;21.03;60.73;100569.53;10541892;28;20036;-71
2021/06/07 07:58:10;;;;;;;21.30;19.90;;;;;;;21.53;58.31;100573.31;10508015;28;20454;-71
2021/06/07 08:03:12;;;;;;;22.48;21.00;;;;;;;21.79;57.90;100580.41;10543254;28;20385;-72
2021/06/07 08:08:14;;;;;;;22.65;21.13;;;;;;;21.79;57.39;100590.25;10542071;28;20036;-71
2021/06/07 08:13:15;;;;;;;21.27;19.58;;;;;;;21.55;59.23;100584.75;10505430;28;20399;-72
2021/06/07 08:18:17;;;;;;;22.55;21.05;;;;;;;21.77;57.19;100586.81;10530123;28;20489;-70
2021/06/07 08:23:19;;;;;;;22.23;20.13;;;;;;;21.88;57.50;100579.75;10506606;28;20059;-71
2021/06/07 08:28:20;;;;;;;22.40;20.55;;;;;;;21.60;57.10;100578.16;10540899;28;20458;-71
2021/06/07 08:33:22;;;;;;;21.33;19.88;;;;;;;22.25;56.45;100579.84;10540873;28;20115;-72
2021/06/07 08:38:24;;;;;;;20.27;18.63;;;;;;;23.05;55.75;100572.19;10541055;28;20040;-72
2021/06/07 08:43:27;;;;;;;21.27;19.70;;;;;;;23.09;55.24;100568.28;10583727;22;20091;-73
2021/06/07 08:48:29;;;;;;;22.23;20.50;;;;;;;23.10;53.89;100571.81;10578542;28;20040;-74
2021/06/07 08:53:31;;;;;;;18.67;17.27;;;;;;;22.91;56.39;100575.91;10542668;28;20043;-73
2021/06/07 08:58:33;;;;;;;21.60;20.00;;;;;;;22.87;54.06;100581.56;10544614;28;20100;-73
2021/06/07 09:03:35;;;;;;;21.02;19.20;;;;;;;22.74;54.42;100583.44;10542843;28;20048;-73
2021/06/07 09:08:39;;;;;;;19.05;17.67;;;;;;;23.20;54.23;100580.03;10559426;28;20146;-74
2021/06/07 09:13:41;;;;;;;18.60;17.35;;;;;;;23.92;52.92;100583.41;10585215;28;20420;-73
2021/06/07 09:18:48;;;;;;;18.15;16.75;;;;;;;24.48;50.92;100578.06;10584379;28;20520;-73
2021/06/07 09:23:55;;;;;;;19.00;17.63;;;;;;;24.96;48.42;100579.50;10584783;28;20055;-74
2021/06/07 09:28:59;;;;;;;17.08;15.98;;;;;;;24.84;49.18;100567.94;10583415;28;20046;-73
2021/06/07 09:34:07;;;;;;;18.90;17.55;;;;;;;24.95;49.65;100564.34;10585074;28;20454;-72
2021/06/07 09:39:21;;;;;;;18.38;16.98;;;;;;;25.12;50.13;100561.13;10588012;28;20147;-73
2021/06/07 09:44:33;;;;;;;18.30;16.85;;;;;;;24.86;51.86;100557.91;10585171;28;20062;-74
2021/06/07 09:50:06;;;;;;;17.25;16.08;;;;;;;25.36;49.65;100564.41;10585993;28;20054;-72
2021/06/07 09:55:11;;;;;;;18.50;16.83;;;;;;;25.61;50.29;100555.09;10583976;28;20040;-73
2021/06/07 10:00:32;;;;;;;17.77;16.67;;;;;;;25.55;50.11;100547.56;10585055;28;20073;-73
2021/06/07 10:05:34;;;;;;;14.20;13.30;;;;;;;26.20;47.65;100556.25;10584897;28;20043;-73
2021/06/07 10:10:36;;;;;;;15.45;14.45;;;;;;;25.29;49.13;100549.78;10584184;28;20069;-73
2021/06/07 10:15:43;;;;;;;15.95;14.95;;;;;;;25.53;49.63;100546.81;10590455;28;20044;-73
2021/06/07 10:20:49;;;;;;;14.52;13.60;;;;;;;25.51;49.06;100554.19;10594790;28;20492;-73
2021/06/07 10:25:53;;;;;;;17.30;16.23;;;;;;;25.69;48.47;100549.06;10591819;28;20048;-72
2021/06/07 10:30:56;;;;;;;15.07;14.07;;;;;;;25.41;48.98;100548.75;10590767;28;20508;-73
2021/06/07 10:36:24;;;;;;;14.77;13.73;;;;;;;26.06;47.50;100552.09;10591646;28;20040;-73
2021/06/07 10:41:28;;;;;;;13.10;12.23;;;;;;;26.63;47.27;100537.09;10591036;28;20052;-72
2021/06/07 10:46:32;;;;;;;15.20;13.95;;;;;;;26.72;46.38;100534.56;10594162;28;20052;-73
2021/06/07 10:51:34;;;;;;;13.90;13.00;;;;;;;27.42;45.27;100526.16;10572499;28;20058;-74
2021/06/07 10:56:36;;;;;;;12.65;11.82;;;;;;;27.56;45.75;100532.09;10591961;28;20039;-73
2021/06/07 11:01:49;;;;;;;12.52;11.65;;;;;;;27.04;44.23;100528.88;10590754;28;20039;-74
2021/06/07 11:07:12;;;;;;;12.90;12.15;;;;;;;26.00;47.43;100523.00;10593127;28;20056;-73
2021/06/07 11:12:14;;;;;;;13.27;12.48;;;;;;;26.96;43.90;100516.13;10591069;28;20055;-73
2021/06/07 11:17:24;;;;;;;13.80;12.77;;;;;;;27.74;43.09;100506.06;10588908;28;20035;-72
2021/06/07 11:22:26;;;;;;;12.20;11.43;;;;;;;27.01;47.17;100511.13;10590450;28;20130;-74
2021/06/07 11:27:39;;;;;;;12.23;11.38;;;;;;;27.82;44.71;100499.91;10591703;28;20036;-73
2021/06/07 11:32:41;;;;;;;10.93;10.32;;;;;;;28.07;42.00;100492.97;10592612;28;20036;-72
2021/06/07 11:37:44;;;;;;;11.25;10.60;;;;;;;27.87;42.38;100494.91;10594702;28;20496;-72
2021/06/07 11:42:54;;;;;;;12.93;11.90;;;;;;;27.89;41.83;100482.97;10588256;28;20051;-73
2021/06/07 11:47:57;;;;;;;12.70;11.80;;;;;;;27.45;43.01;100489.94;10589836;28;20473;-73
2021/06/07 11:53:17;;;;;;;10.75;10.15;;;;;;;27.81;42.18;100476.63;10588615;28;20040;-73
2021/06/07 11:58:21;;;;;;;10.02;9.52;;;;;;;27.96;41.57;100479.66;10591498;28;20100;-73
2021/06/07 12:03:29;;;;;;;10.43;9.82;;;;;;;28.13;42.08;100474.28;10587740;28;20515;-73
2021/06/07 12:08:30;;;;;;;9.27;8.68;;;;;;;28.28;40.12;100473.78;10570324;28;20547;-73
2021/06/07 12:13:35;;;;;;;9.60;9.00;;;;;;;28.33;40.67;100469.63;10590263;28;20084;-72
2021/06/07 12:18:42;;;;;;;10.77;10.07;;;;;;;28.39;41.26;100466.34;10586858;28;20054;-73
2021/06/07 12:23:56;;;;;;;10.88;10.05;;;;;;;28.34;42.30;100457.81;10586286;28;20566;-73
2021/06/07 12:28:57;;;;;;;9.27;8.75;;;;;;;28.22;41.22;100456.31;10587772;28;20035;-73
2021/06/07 12:34:08;;;;;;;9.18;8.57;;;;;;;28.58;41.53;100454.50;10588853;28;20495;-73
2021/06/07 12:39:16;;;;;;;9.05;8.45;;;;;;;28.01;41.16;100443.06;10584170;28;20046;-73
2021/06/07 12:44:25;;;;;;;10.10;9.23;;;;;;;28.33;42.77;100445.31;10584239;28;20081;-72
2021/06/07 12:49:29;;;;;;;9.50;8.77;;;;;;;28.36;41.61;100439.59;10582657;28;20052;-72
2021/06/07 12:54:32;;;;;;;9.68;8.98;;;;;;;28.15;42.08;100430.88;10528190;28;20062;-73
2021/06/07 12:59:36;;;;;;;8.52;7.93;;;;;;;27.85;42.37;100426.69;10524930;28;20067;-73
2021/06/07 13:04:39;;;;;;;8.98;8.38;;;;;;;28.31;41.20;100422.13;10503281;28;20070;-72
2021/06/07 13:09:43;;;;;;;8.82;8.32;;;;;;;28.51;40.08;100412.88;10499870;28;20036;-72
2021/06/07 13:14:51;;;;;;;8.73;8.18;;;;;;;28.14;42.56;100404.88;10500139;28;20455;-73
2021/06/07 13:19:55;;;;;;;8.10;7.55;;;;;;;28.01;40.65;100391.72;10502297;28;20040;-73
2021/06/07 13:24:57;;;;;;;8.13;7.53;;;;;;;27.65;41.32;100393.47;10504483;28;20489;-72
2021/06/07 13:30:06;;;;;;;8.32;7.40;;;;;;;27.91;41.44;100399.06;10502393;28;20053;-72
2021/06/07 13:35:10;;;;;;;8.27;7.68;;;;;;;28.09;41.41;100397.22;10500377;28;20076;-72
2021/06/07 13:40:27;;;;;;;7.72;7.22;;;;;;;27.82;42.40;100397.25;10500991;28;20045;-72
2021/06/07 13:45:38;;;;;;;9.38;8.77;;;;;;;27.73;43.48;100384.66;10499130;28;20068;-72
2021/06/07 13:50:44;;;;;;;7.80;7.30;;;;;;;27.86;41.47;100379.75;10506187;28;20397;-72
2021/06/07 13:55:49;;;;;;;7.10;6.60;;;;;;;28.00;42.46;100373.81;10508467;28;20063;-72
2021/06/07 14:00:53;;;;;;;6.77;6.30;;;;;;;27.56;40.61;100365.53;10511064;28;20410;-71
2021/06/07 14:05:57;;;;;;;7.05;6.45;;;;;;;27.71;41.77;100363.16;10508999;28;20052;-71
2021/06/07 14:11:03;;;;;;;6.65;5.85;;;;;;;27.98;39.17;100361.47;10508240;28;20444;-72
2021/06/07 14:16:05;;;;;;;6.70;6.20;;;;;;;27.70;40.15;100364.16;10506982;28;20382;-73
2021/06/07 14:21:10;;;;;;;6.55;6.05;;;;;;;28.26;38.94;100354.16;10506162;28;20486;-72
2021/06/07 14:26:15;;;;;;;5.60;5.20;;;;;;;28.58;36.99;100359.00;10505812;28;20432;-71
2021/06/07 14:31:19;;;;;;;5.13;4.80;;;;;;;28.07;35.71;100353.31;10505786;28;20044;-72
2021/06/07 14:36:31;;;;;;;5.03;4.67;;;;;;;27.91;36.24;100351.28;10507339;28;20283;-70
2021/06/07 14:41:33;;;;;;;5.03;4.50;;;;;;;28.76;34.84;100351.69;10519494;22;20044;-73
2021/06/07 14:46:34;;;;;;;5.03;4.72;;;;;;;28.29;35.63;100349.28;10506527;28;20040;-74
2021/06/07 14:51:36;;;;;;;4.80;4.40;;;;;;;28.07;35.89;100341.66;10539178;28;20101;-73
2021/06/07 14:56:38;;;;;;;4.70;4.25;;;;;;;28.26;34.86;100343.34;10548052;28;20387;-74
2021/06/07 15:01:40;;;;;;;4.20;3.75;;;;;;;28.41;34.22;100339.94;10547040;28;20050;-75
2021/06/07 15:06:42;;;;;;;4.95;4.50;;;;;;;28.09;34.43;100343.16;10529683;28;20048;-74
2021/06/07 15:11:43;;;;;;;4.78;4.00;;;;;;;28.05;35.74;100339.06;10549307;28;20120;-73
2021/06/07 15:16:45;;;;;;;3.50;3.20;;;;;;;28.53;32.74;100342.41;10512473;28;20451;-74
2021/06/07 15:21:47;;;;;;;3.83;3.50;;;;;;;28.41;33.84;100330.97;10528182;28;20089;-74
2021/06/07 15:26:49;;;;;;;3.67;3.40;;;;;;;28.14;34.77;100335.44;10528691;28;20055;-74
2021/06/07 15:31:50;;;;;;;3.65;3.38;;;;;;;28.56;34.63;100336.69;10547665;28;20054;-74
2021/06/07 15:36:52;;;;;;;4.20;3.80;;;;;;;28.91;35.47;100339.31;10527934;28;20052;-74
2021/06/07 15:41:54;;;;;;;4.38;4.00;;;;;;;28.04;36.02;100333.84;10545968;28;20060;-74
2021/06/07 15:46:56;;;;;;;3.85;3.65;;;;;;;28.70;33.75;100329.84;10546083;28;20401;-75
2021/06/07 15:52:01;;;;;;;3.28;3.08;;;;;;;28.77;33.15;100331.75;10545674;28;20048;-76
2021/06/07 15:57:03;;;;;;;4.22;3.80;;;;;;;29.22;32.84;100324.41;10545978;28;20059;-75
2021/06/07 16:02:05;;;;;;;4.00;3.70;;;;;;;28.51;33.41;100322.78;10545483;28;20058;-73
2021/06/07 16:07:06;;;;;;;4.00;3.70;;;;;;;28.17;34.17;100320.78;10526823;28;20063;-73
2021/06/07 16:12:09;;;;;;;4.53;4.22;;;;;;;28.43;35.29;100320.88;10543719;28;20072;-73
2021/06/07 16:17:14;;;;;;;4.68;4.38;;;;;;;27.19;37.21;100313.44;10527558;28;20093;-75
2021/06/07 16:22:16;;;;;;;;;;;;;;;27.28;37.67;100310.69;10527907;28;20052;-75
2021/06/07 16:27:18;;;;;;;4.85;4.45;;;;;;;27.04;37.33;100313.88;10527079;28;19926;-75
2021/06/07 16:32:20;;;;;;;4.50;4.00;;;;;;;27.52;37.31;100310.13;10526745;28;20451;-74
2021/06/07 16:37:22;;;;;;;4.97;4.22;;;;;;;26.88;38.29;100311.81;10525823;28;20067;-73
2021/06/07 16:42:23;;;;;;;4.57;4.28;;;;;;;26.63;38.26;100301.66;10544053;28;20127;-74
2021/06/07 16:47:26;;;;;;;4.97;4.57;;;;;;;26.60;38.54;100308.19;10525153;28;20044;-74
2021/06/07 16:52:28;;;;;;;4.40;4.10;;;;;;;26.13;38.84;100304.53;10525923;28;20048;-74
2021/06/07 16:57:29;;;;;;;5.82;4.10;;;;;;;26.10;39.76;100312.91;10526983;28;20442;-73
2021/06/07 17:02:32;;;;;;;3.97;3.72;;;;;;;26.07;38.90;100307.78;10543410;28;20339;-74
2021/06/07 17:07:34;;;;;;;4.50;4.15;;;;;;;25.81;39.38;100308.34;10543060;28;20040;-74
2021/06/07 17:12:59;;;;;;;3.75;3.55;;;;;;;25.95;38.76;100306.25;10543275;28;20044;-74
2021/06/07 17:18:06;;;;;;;5.47;4.97;;;;;;;25.73;39.25;100315.41;10543246;28;20035;-74
2021/06/07 17:23:14;;;;;;;5.22;4.20;;;;;;;25.45;40.10;100306.25;10527672;28;20044;-72
2021/06/07 17:28:16;;;;;;;4.85;4.45;;;;;;;25.47;40.08;100315.91;10542158;28;20077;-73
2021/06/07 17:33:19;;;;;;;4.85;4.07;;;;;;;25.45;41.03;100315.16;10542090;28;20052;-73
2021/06/07 17:38:21;;;;;;;4.47;4.07;;;;;;;25.29;41.89;100317.53;10524248;28;20378;-74
2021/06/07 17:43:23;;;;;;;4.53;4.22;;;;;;;25.26;42.07;100325.88;10543737;28;20123;-74
2021/06/07 17:48:25;;;;;;;4.05;3.67;;;;;;;25.01;42.64;100327.16;10542414;28;20487;-75
2021/06/07 17:53:26;;;;;;;5.05;3.90;;;;;;;24.71;42.67;100325.31;10508608;28;20131;-73
2021/06/07 17:58:28;;;;;;;4.85;4.32;;;;;;;24.69;43.10;100325.41;10542172;28;20048;-74
2021/06/07 18:03:30;;;;;;;5.25;4.40;;;;;;;24.46;45.00;100327.41;10524296;28;20044;-74
2021/06/07 18:08:32;;;;;;;5.07;4.68;;;;;;;24.47;46.04;100329.09;10541981;28;20044;-75
2021/06/07 18:13:34;;;;;;;5.45;4.95;;;;;;;24.17;47.06;100332.50;10509142;28;20098;-74
2021/06/07 18:18:36;;;;;;;5.78;5.28;;;;;;;24.02;47.47;100328.44;10543166;28;20036;-75
2021/06/07 18:23:40;;;;;;;6.25;5.68;;;;;;;23.82;48.14;100330.94;10544264;28;20577;-76
2021/06/07 18:28:42;;;;;;;6.53;5.97;;;;;;;23.83;48.75;100342.53;10543150;28;20044;-76
2021/06/07 18:33:43;;;;;;;6.75;6.25;;;;;;;23.55;49.50;100341.19;10544578;28;20052;-76
2021/06/07 18:38:45;;;;;;;6.82;6.28;;;;;;;23.49;49.48;100344.38;10532112;28;20037;-75
2021/06/07 18:43:47;;;;;;;7.18;6.68;;;;;;;23.36;49.61;100348.03;10549245;28;20069;-76
2021/06/07 18:48:49;;;;;;;7.13;6.63;;;;;;;23.19;49.81;100353.06;10533788;28;20426;-75
2021/06/07 18:53:52;;;;;;;7.75;7.00;;;;;;;23.06;50.72;100363.88;10532817;28;20044;-75
2021/06/07 18:58:54;;;;;;;7.53;6.93;;;;;;;23.16;50.64;100364.88;10550374;28;20047;-76
2021/06/07 19:03:56;;;;;;;7.45;6.95;;;;;;;22.67;51.99;100379.41;10529866;28;20408;-75
2021/06/07 19:08:58;;;;;;;9.32;8.60;;;;;;;22.71;52.41;100380.88;10532323;28;20040;-77
2021/06/07 19:13:59;;;;;;;8.23;7.72;;;;;;;22.50;53.88;100393.22;10534418;28;20046;-76
2021/06/07 19:19:06;;;;;;;10.27;9.57;;;;;;;22.53;55.06;100387.63;10555639;28;20044;-77
2021/06/07 19:24:09;;;;;;;11.48;10.77;;;;;;;22.31;57.38;100402.66;10536912;28;20078;-76
2021/06/07 19:29:11;;;;;;;12.90;12.05;;;;;;;22.02;59.15;100406.59;10533495;28;20040;-75
2021/06/07 19:34:13;;;;;;;14.27;13.32;;;;;;;21.88;60.71;100412.97;10538370;28;20059;-75
2021/06/07 19:39:15;;;;;;;16.05;15.15;;;;;;;21.83;62.28;100415.97;10534322;28;20043;-75
2021/06/07 19:44:16;;;;;;;16.63;15.25;;;;;;;21.61;63.19;100414.00;10548416;28;20450;-77
2021/06/07 19:49:19;;;;;;;18.75;17.48;;;;;;;21.65;63.70;100428.88;10548192;28;20046;-74
2021/06/07 19:54:21;;;;;;;19.30;18.20;;;;;;;21.46;64.15;100436.47;10528949;28;20140;-75
2021/06/07 19:59:22;;;;;;;19.85;18.65;;;;;;;21.31;64.89;100443.75;10547757;28;20039;-75
2021/06/07 20:04:24;;;;;;;21.83;20.52;;;;;;;21.17;65.74;100442.03;10549309;28;20044;-75
2021/06/07 20:09:27;;;;;;;22.70;21.25;;;;;;;20.97;66.41;100442.53;10550032;28;20039;-76
2021/06/07 20:14:28;;;;;;;23.05;21.70;;;;;;;21.04;66.04;100456.34;10535970;28;20044;-77
2021/06/07 20:19:33;;;;;;;24.30;22.60;;;;;;;20.89;66.73;100459.09;10552852;28;20032;-76
2021/06/07 20:24:35;;;;;;;23.73;22.08;;;;;;;20.87;67.15;100468.16;10532415;28;20512;-77
2021/06/07 20:29:39;;;;;;;26.38;24.55;;;;;;;20.78;67.19;100471.47;10551587;28;20401;-77
2021/06/07 20:34:41;;;;;;;24.23;22.70;;;;;;;20.59;67.80;100471.84;10550427;28;20044;-75
2021/06/07 20:39:43;;;;;;;27.27;25.38;;;;;;;20.40;68.47;100477.50;10550202;28;20044;-76
2021/06/07 20:44:45;;;;;;;27.27;25.02;;;;;;;20.35;68.43;100477.78;10591073;22;20048;-69
2021/06/07 20:49:46;;;;;;;27.63;25.20;;;;;;;20.28;68.49;100481.00;10589022;28;20067;-69
2021/06/07 20:54:50;;;;;;;26.30;24.48;;;;;;;20.25;68.52;100487.38;10586575;28;20346;-69
2021/06/07 20:59:52;;;;;;;27.45;25.27;;;;;;;20.25;68.46;100497.19;10587466;28;20085;-70
2021/06/07 21:04:54;;;;;;;26.63;24.88;;;;;;;20.25;68.37;100487.38;10586815;28;20119;-70
2021/06/07 21:09:57;;;;;;;25.77;24.08;;;;;;;19.99;69.25;100481.03;10590562;28;20109;-69
2021/06/07 21:15:00;;;;;;;27.90;25.52;;;;;;;20.00;68.90;100481.88;10587641;28;20043;-69
2021/06/07 21:20:04;;;;;;;27.33;25.17;;;;;;;19.91;69.53;100494.84;10584551;28;20047;-69
2021/06/07 21:25:07;;;;;;;27.77;25.63;;;;;;;19.93;69.68;100486.78;10582964;28;20073;-69
2021/06/07 21:30:11;;;;;;;29.13;27.33;;;;;;;19.75;69.87;100487.94;10585135;28;20077;-69
2021/06/07 21:35:13;;;;;;;29.02;26.42;;;;;;;19.63;70.29;100497.53;10584281;28;20523;-69
2021/06/07 21:40:15;;;;;;;29.10;27.15;;;;;;;19.70;70.03;100495.34;10583661;28;20108;-69
2021/06/07 21:45:17;;;;;;;26.67;24.98;;;;;;;19.55;70.15;100503.31;10585211;28;20058;-70
2021/06/07 21:50:19;;;;;;;26.58;24.88;;;;;;;19.48;70.51;100511.78;10583282;28;20044;-70
2021/06/07 21:55:20;;;;;;;26.65;24.85;;;;;;;19.55;70.40;100515.78;10586503;28;20047;-70
2021/06/07 22:00:22;;;;;;;28.27;26.58;;;;;;;19.38;70.70;100520.34;10583323;28;20070;-69
2021/06/07 22:05:24;;;;;;;28.98;26.90;;;;;;;19.21;71.10;100519.63;10582554;28;20055;-69
2021/06/07 22:10:26;;;;;;;27.25;25.70;;;;;;;19.37;70.76;100517.78;10587382;28;20040;-70
2021/06/07 22:15:29;;;;;;;26.05;24.17;;;;;;;19.44;70.30;100520.94;10595137;28;20504;-70
2021/06/07 22:20:31;;;;;;;27.75;25.98;;;;;;;19.21;70.95;100520.50;10593126;28;20548;-70
2021/06/07 22:25:32;;;;;;;29.35;27.45;;;;;;;18.94;71.67;100525.66;10591323;28;20054;-70
2021/06/07 22:30:36;;;;;;;29.55;27.35;;;;;;;19.13;70.97;100522.78;10591585;28;20043;-71
2021/06/07 22:35:39;;;;;;;29.15;27.08;;;;;;;19.02;71.08;100520.72;10594042;27;20372;-69
2021/06/07 22:40:40;;;;;;;28.15;26.35;;;;;;;18.95;71.09;100527.41;10592734;28;20035;-69
2021/06/07 22:45:42;;;;;;;27.05;25.00;;;;;;;18.81;71.42;100536.16;10591180;28;20047;-71
2021/06/07 22:50:44;;;;;;;30.27;28.10;;;;;;;18.76;71.80;100543.56;10590774;28;20047;-70
2021/06/07 22:55:45;;;;;;;30.50;28.40;;;;;;;19.03;71.37;100540.25;10572853;28;20051;-69